createdAt,value
2024-05-09T00:00:52.236Z,0.02
2024-05-09T00:01:52.381Z,0.02
2024-05-09T00:02:52.640Z,0.00
2024-05-09T00:03:52.794Z,0.00
2024-05-09T00:04:51.994Z,0.02
2024-05-09T00:05:52.160Z,0.06
2024-05-09T00:06:52.332Z,0.02
2024-05-09T00:07:52.610Z,0.00
2024-05-09T00:08:52.725Z,0.02
2024-05-09T00:09:52.887Z,0.02
2024-05-09T00:10:52.212Z,0.02
2024-05-09T00:11:52.442Z,0.00
2024-05-09T00:12:52.584Z,0.00
2024-05-09T00:13:51.864Z,0.02
2024-05-09T00:14:51.943Z,0.00
2024-05-09T00:15:52.186Z,0.00
2024-05-09T00:16:52.499Z,0.02
2024-05-09T00:17:52.922Z,0.00
2024-05-09T00:18:51.970Z,0.02
2024-05-09T00:19:52.082Z,0.00
2024-05-09T00:20:52.341Z,0.00
2024-05-09T00:21:52.497Z,0.00
2024-05-09T00:22:51.705Z,0.00
2024-05-09T00:23:52.046Z,0.00
2024-05-09T00:24:52.134Z,0.00
2024-05-09T00:25:52.355Z,0.00
2024-05-09T00:26:52.511Z,0.00
2024-05-09T00:27:51.671Z,0.00
2024-05-09T00:28:51.922Z,0.00
2024-05-09T00:29:52.089Z,0.02
2024-05-09T00:30:52.291Z,0.02
2024-05-09T00:31:51.508Z,0.00
2024-05-09T00:32:51.970Z,0.00
2024-05-09T00:33:52.092Z,0.02
2024-05-09T00:34:52.154Z,0.02
2024-05-09T00:35:52.308Z,0.00
2024-05-09T00:36:51.466Z,0.00
2024-05-09T00:37:51.724Z,0.02
2024-05-09T00:38:51.921Z,0.00
2024-05-09T00:39:52.117Z,0.00
2024-05-09T00:40:51.309Z,0.00
2024-05-09T00:41:51.495Z,0.00
2024-05-09T00:42:51.712Z,0.00
2024-05-09T00:43:52.094Z,0.00
2024-05-09T00:44:53.060Z,0.02
2024-05-09T00:45:51.261Z,0.00
2024-05-09T00:46:51.520Z,0.00
2024-05-09T00:47:51.977Z,0.02
2024-05-09T00:48:52.029Z,0.00
2024-05-09T00:49:52.185Z,0.00
2024-05-09T00:50:51.419Z,0.00
2024-05-09T00:51:51.486Z,0.02
2024-05-09T00:52:51.767Z,0.02
2024-05-09T00:53:51.962Z,0.00
2024-05-09T00:54:52.107Z,0.00
2024-05-09T00:55:51.335Z,0.00
2024-05-09T00:56:51.540Z,0.00
2024-05-09T00:57:51.739Z,0.02
2024-05-09T00:58:52.073Z,0.02
2024-05-09T00:59:51.185Z,0.02
2024-05-09T01:00:51.498Z,0.02
2024-05-09T01:01:51.883Z,0.00
2024-05-09T01:02:51.924Z,0.00
2024-05-09T01:03:52.235Z,0.00
2024-05-09T01:04:51.341Z,0.00
2024-05-09T01:05:51.510Z,0.02
2024-05-09T01:06:51.622Z,0.02
2024-05-09T01:07:51.889Z,0.02
2024-05-09T01:08:51.027Z,0.02
2024-05-09T01:09:51.204Z,0.00
2024-05-09T01:10:51.580Z,0.00
2024-05-09T01:11:51.752Z,0.00
2024-05-09T01:12:51.843Z,0.00
2024-05-09T01:13:51.053Z,0.00
2024-05-09T01:14:51.230Z,0.00
2024-05-09T01:15:51.505Z,0.00
2024-05-09T01:16:51.802Z,0.00
2024-05-09T01:17:51.150Z,0.00
2024-05-09T01:18:51.295Z,0.00
2024-05-09T01:19:51.383Z,0.00
2024-05-09T01:20:51.644Z,0.02
2024-05-09T01:21:50.750Z,0.00
2024-05-09T01:22:51.008Z,0.02
2024-05-09T01:23:51.177Z,0.00
2024-05-09T01:24:50.818Z,0.00
2024-05-09T01:25:51.161Z,0.02
2024-05-09T01:26:51.274Z,0.02
2024-05-09T01:27:51.523Z,0.00
2024-05-09T01:28:50.727Z,0.02
2024-05-09T01:29:50.997Z,0.00
2024-05-09T01:30:51.137Z,0.00
2024-05-09T01:31:51.406Z,0.00
2024-05-09T01:32:51.848Z,0.00
2024-05-09T01:33:50.915Z,0.00
2024-05-09T01:34:51.105Z,0.02
2024-05-09T01:35:51.232Z,0.00
2024-05-09T01:36:51.471Z,0.00
2024-05-09T01:37:50.702Z,0.00
2024-05-09T01:38:51.856Z,0.02
2024-05-09T01:39:51.152Z,0.00
2024-05-09T01:40:51.387Z,0.00
2024-05-09T01:41:50.598Z,0.00
2024-05-09T01:42:50.830Z,0.00
2024-05-09T01:43:51.108Z,0.00
2024-05-09T01:44:51.300Z,0.00
2024-05-09T01:45:50.492Z,0.00
2024-05-09T01:46:50.831Z,0.00
2024-05-09T01:47:51.176Z,0.02
2024-05-09T01:48:51.322Z,0.00
2024-05-09T01:49:50.466Z,0.00
2024-05-09T01:50:50.696Z,0.00
2024-05-09T01:51:50.955Z,0.00
2024-05-09T01:53:50.312Z,0.00
2024-05-09T01:54:50.537Z,0.00
2024-05-09T01:55:50.835Z,0.02
2024-05-09T01:56:51.014Z,0.00
2024-05-09T01:57:51.271Z,0.00
2024-05-09T01:58:50.426Z,0.00
2024-05-09T01:59:50.658Z,0.00
2024-05-09T02:00:50.999Z,0.02
2024-05-09T02:01:56.750Z,0.02
2024-05-09T02:02:51.551Z,0.02
2024-05-09T02:03:50.788Z,0.00
2024-05-09T02:04:50.834Z,0.00
2024-05-09T02:05:51.124Z,0.02
2024-05-09T02:06:50.163Z,0.02
2024-05-09T02:07:50.463Z,0.00
2024-05-09T02:08:50.582Z,0.00
2024-05-09T02:09:50.783Z,0.00
2024-05-09T02:10:51.245Z,0.02
2024-05-09T02:11:50.248Z,0.00
2024-05-09T02:12:50.374Z,0.00
2024-05-09T02:13:50.628Z,0.00
2024-05-09T02:14:50.772Z,0.02
2024-05-09T02:15:51.108Z,0.00
2024-05-09T02:16:50.251Z,0.00
2024-05-09T02:17:50.693Z,0.00
2024-05-09T02:18:51.621Z,0.00
2024-05-09T02:19:50.846Z,0.02
2024-05-09T02:20:50.060Z,0.00
2024-05-09T02:21:50.253Z,0.02
2024-05-09T02:22:50.497Z,0.02
2024-05-09T02:23:50.664Z,0.02
2024-05-09T02:24:50.888Z,0.00
2024-05-09T02:25:50.105Z,0.00
2024-05-09T02:26:50.319Z,0.05
2024-05-09T02:27:50.488Z,0.00
2024-05-09T02:28:50.774Z,0.00
2024-05-09T02:29:49.864Z,0.00
2024-05-09T02:30:50.096Z,0.02
2024-05-09T02:31:50.408Z,0.00
2024-05-09T02:32:50.571Z,0.00
2024-05-09T02:33:50.910Z,0.02
2024-05-09T02:34:49.921Z,0.02
2024-05-09T02:35:50.086Z,0.00
2024-05-09T02:36:51.289Z,0.00
2024-05-09T02:37:50.504Z,0.00
2024-05-09T02:38:50.684Z,0.02
2024-05-09T02:39:49.846Z,0.00
2024-05-09T02:40:50.115Z,0.00
2024-05-09T02:41:50.330Z,0.00
2024-05-09T02:42:50.525Z,0.00
2024-05-09T02:43:49.730Z,0.00
2024-05-09T02:44:49.903Z,0.00
2024-05-09T02:45:51.117Z,0.00
2024-05-09T02:46:50.425Z,0.02
2024-05-09T02:47:50.779Z,0.02
2024-05-09T02:48:49.821Z,0.02
2024-05-09T02:49:50.003Z,0.00
2024-05-09T02:50:50.205Z,0.00
2024-05-09T02:51:50.433Z,0.02
2024-05-09T02:52:49.671Z,0.02
2024-05-09T02:53:49.879Z,0.01
2024-05-09T02:54:50.120Z,0.02
2024-05-09T02:55:50.406Z,0.01
2024-05-09T02:56:49.602Z,0.01
2024-05-09T02:57:49.929Z,0.01
2024-05-09T02:58:50.096Z,0.05
2024-05-09T02:59:50.238Z,0.03
2024-05-09T03:00:49.567Z,0.02
2024-05-09T03:01:49.827Z,0.02
2024-05-09T03:02:50.038Z,0.02
2024-05-09T03:03:50.326Z,0.03
2024-05-09T03:04:50.405Z,0.02
2024-05-09T03:05:49.566Z,0.03
2024-05-09T03:06:49.774Z,0.03
2024-05-09T03:07:51.033Z,0.04
2024-05-09T03:08:50.218Z,0.11
2024-05-09T03:09:49.385Z,0.11
2024-05-09T03:10:49.650Z,0.25
2024-05-09T03:11:49.993Z,0.08
2024-05-09T03:12:50.035Z,0.10
2024-05-09T03:13:50.242Z,0.10
2024-05-09T03:14:49.450Z,0.13
2024-05-09T03:15:49.674Z,0.15
2024-05-09T03:16:49.952Z,0.20
2024-05-09T03:17:50.338Z,0.21
2024-05-09T03:18:49.381Z,0.26
2024-05-09T03:19:50.545Z,0.28
2024-05-09T03:20:49.845Z,0.36
2024-05-09T03:21:49.999Z,0.41
2024-05-09T03:22:49.246Z,0.49
2024-05-09T03:23:49.453Z,0.56
2024-05-09T03:24:49.626Z,0.65
2024-05-09T03:25:49.917Z,0.75
2024-05-09T03:26:50.091Z,0.87
2024-05-09T03:27:49.291Z,1.00
2024-05-09T03:28:49.524Z,1.15
2024-05-09T03:29:49.689Z,1.34
2024-05-09T03:30:49.933Z,1.50
2024-05-09T03:31:49.206Z,1.72
2024-05-09T03:32:49.537Z,1.97
2024-05-09T03:33:49.662Z,2.23
2024-05-09T03:34:49.832Z,2.55
2024-05-09T03:35:49.570Z,2.90
2024-05-09T03:36:49.181Z,3.26
2024-05-09T03:37:49.461Z,3.74
2024-05-09T03:38:49.604Z,4.31
2024-05-09T03:39:49.839Z,4.88
2024-05-09T03:40:49.883Z,5.50
2024-05-09T03:41:49.231Z,6.17
2024-05-09T03:42:49.515Z,6.92
2024-05-09T03:43:49.768Z,7.73
2024-05-09T03:44:48.887Z,8.54
2024-05-09T03:45:49.111Z,9.31
2024-05-09T03:46:49.315Z,10.14
2024-05-09T03:47:49.788Z,11.00
2024-05-09T03:48:49.895Z,11.99
2024-05-09T03:49:48.965Z,12.97
2024-05-09T03:50:49.227Z,14.02
2024-05-09T03:51:49.500Z,15.19
2024-05-09T03:52:49.708Z,16.46
2024-05-09T03:53:48.934Z,17.76
2024-05-09T03:54:49.061Z,19.23
2024-05-09T03:55:49.316Z,20.70
2024-05-09T03:56:49.512Z,22.16
2024-05-09T03:57:48.709Z,23.58
2024-05-09T03:58:48.941Z,25.03
2024-05-09T03:59:49.158Z,26.57
2024-05-09T04:00:49.427Z,27.96
2024-05-09T04:01:49.660Z,29.54
2024-05-09T04:02:48.820Z,31.15
2024-05-09T04:03:49.261Z,33.08
2024-05-09T04:04:49.359Z,36.34
2024-05-09T04:05:49.503Z,40.68
2024-05-09T04:06:48.678Z,45.53
2024-05-09T04:07:48.982Z,50.64
2024-05-09T04:08:49.263Z,54.92
2024-05-09T04:09:49.385Z,59.36
2024-05-09T04:10:48.638Z,61.49
2024-05-09T04:11:48.960Z,64.37
2024-05-09T04:12:49.021Z,65.78
2024-05-09T04:13:49.281Z,67.94
2024-05-09T04:14:49.439Z,70.27
2024-05-09T04:15:48.644Z,72.15
2024-05-09T04:16:48.994Z,77.39
2024-05-09T04:17:49.488Z,83.60
2024-05-09T04:18:49.453Z,90.96
2024-05-09T04:19:48.570Z,95.72
2024-05-09T04:20:48.857Z,99.07
2024-05-09T04:21:49.037Z,102.62
2024-05-09T04:22:49.331Z,106.71
2024-05-09T04:23:48.519Z,108.65
2024-05-09T04:24:48.674Z,108.37
2024-05-09T04:25:48.969Z,109.64
2024-05-09T04:26:49.142Z,111.87
2024-05-09T04:27:48.339Z,115.14
2024-05-09T04:28:48.591Z,118.10
2024-05-09T04:29:48.758Z,120.51
2024-05-09T04:30:49.025Z,124.24
2024-05-09T04:31:48.235Z,127.72
2024-05-09T04:32:48.565Z,130.81
2024-05-09T04:33:48.814Z,132.67
2024-05-09T04:34:48.918Z,130.89
2024-05-09T04:35:49.114Z,125.51
2024-05-09T04:36:48.295Z,115.69
2024-05-09T04:37:48.587Z,101.36
2024-05-09T04:38:48.765Z,100.71
2024-05-09T04:39:48.976Z,100.93
2024-05-09T04:40:48.187Z,100.60
2024-05-09T04:41:48.345Z,100.45
2024-05-09T04:42:48.580Z,100.54
2024-05-09T04:43:48.840Z,100.51
2024-05-09T04:44:49.025Z,100.30
2024-05-09T04:45:48.243Z,101.09
2024-05-09T04:46:48.495Z,103.49
2024-05-09T04:47:48.890Z,106.40
2024-05-09T04:48:49.062Z,109.73
2024-05-09T04:49:48.118Z,111.81
2024-05-09T04:50:48.379Z,114.24
2024-05-09T04:51:48.516Z,117.10
2024-05-09T04:52:48.827Z,119.30
2024-05-09T04:53:48.972Z,121.81
2024-05-09T04:54:48.094Z,124.65
2024-05-09T04:55:48.336Z,125.52
2024-05-09T04:56:48.509Z,124.61
2024-05-09T04:57:48.795Z,123.34
2024-05-09T04:58:47.953Z,123.70
2024-05-09T04:59:48.150Z,125.33
2024-05-09T05:00:48.425Z,125.95
2024-05-09T05:01:48.610Z,126.60
2024-05-09T05:02:48.966Z,126.20
2024-05-09T05:03:48.129Z,127.12
2024-05-09T05:04:48.310Z,130.57
2024-05-09T05:05:48.448Z,132.13
2024-05-09T05:06:48.647Z,134.28
2024-05-09T05:07:47.833Z,136.21
2024-05-09T05:08:48.031Z,138.37
2024-05-09T05:09:48.226Z,138.91
2024-05-09T05:10:49.363Z,140.17
2024-05-09T05:11:48.772Z,137.68
2024-05-09T05:12:47.828Z,142.86
2024-05-09T05:13:48.120Z,146.46
2024-05-09T05:14:48.276Z,148.03
2024-05-09T05:15:48.496Z,153.42
2024-05-09T05:16:47.684Z,151.30
2024-05-09T05:17:48.131Z,149.75
2024-05-09T05:18:48.208Z,153.84
2024-05-09T05:19:48.445Z,146.81
2024-05-09T05:20:48.728Z,157.37
2024-05-09T05:21:47.733Z,163.65
2024-05-09T05:22:48.037Z,170.31
2024-05-09T05:23:48.264Z,172.87
2024-05-09T05:24:48.423Z,172.76
2024-05-09T05:25:47.694Z,176.56
2024-05-09T05:26:47.919Z,177.00
2024-05-09T05:27:48.047Z,180.02
2024-05-09T05:28:48.316Z,182.34
2024-05-09T05:29:48.517Z,186.86
2024-05-09T05:30:47.620Z,192.70
2024-05-09T05:31:47.914Z,197.06
2024-05-09T05:32:48.169Z,202.55
2024-05-09T05:33:48.482Z,208.80
2024-05-09T05:34:47.586Z,211.54
2024-05-09T05:35:47.707Z,213.64
2024-05-09T05:36:47.867Z,217.40
2024-05-09T05:37:48.100Z,219.62
2024-05-09T05:38:48.458Z,218.14
2024-05-09T05:39:47.576Z,221.37
2024-05-09T05:40:47.899Z,223.42
2024-05-09T05:41:47.921Z,225.76
2024-05-09T05:42:48.190Z,225.93
2024-05-09T05:43:47.476Z,228.01
2024-05-09T05:44:47.474Z,233.04
2024-05-09T05:45:47.697Z,238.23
2024-05-09T05:46:47.920Z,244.24
2024-05-09T05:47:48.435Z,251.67
2024-05-09T05:48:47.493Z,249.90
2024-05-09T05:49:47.528Z,252.58
2024-05-09T05:50:47.855Z,255.54
2024-05-09T05:51:47.907Z,265.04
2024-05-09T05:52:48.147Z,267.96
2024-05-09T05:53:47.349Z,272.37
2024-05-09T05:54:47.526Z,276.73
2024-05-09T05:55:47.819Z,281.38
2024-05-09T05:56:47.970Z,290.31
2024-05-09T05:57:47.135Z,294.60
2024-05-09T05:58:47.414Z,309.72
2024-05-09T05:59:47.672Z,323.14
2024-05-09T06:00:47.888Z,329.09
2024-05-09T06:01:48.054Z,334.83
2024-05-09T06:02:47.289Z,355.10
2024-05-09T06:03:47.647Z,353.35
2024-05-09T06:04:47.744Z,355.19
2024-05-09T06:05:47.925Z,333.68
2024-05-09T06:06:47.088Z,333.16
2024-05-09T06:07:47.292Z,336.03
2024-05-09T06:08:47.384Z,355.51
2024-05-09T06:09:49.088Z,364.67
2024-05-09T06:10:47.855Z,378.86
2024-05-09T06:11:47.081Z,389.26
2024-05-09T06:12:47.114Z,403.50
2024-05-09T06:13:48.327Z,424.99
2024-05-09T06:14:47.521Z,437.47
2024-05-09T06:15:48.699Z,448.46
2024-05-09T06:16:47.899Z,453.35
2024-05-09T06:17:47.289Z,458.77
2024-05-09T06:18:47.641Z,476.07
2024-05-09T06:19:47.726Z,493.66
2024-05-09T06:20:47.763Z,503.83
2024-05-09T06:21:46.872Z,508.69
2024-05-09T06:22:47.102Z,511.55
2024-05-09T06:23:47.350Z,522.22
2024-05-09T06:24:47.467Z,503.27
2024-05-09T06:25:47.709Z,516.87
2024-05-09T06:26:47.753Z,477.60
2024-05-09T06:27:47.023Z,487.97
2024-05-09T06:28:47.274Z,494.28
2024-05-09T06:29:47.432Z,525.51
2024-05-09T06:30:47.597Z,549.88
2024-05-09T06:31:46.796Z,537.49
2024-05-09T06:32:47.106Z,503.02
2024-05-09T06:33:47.318Z,475.63
2024-05-09T06:34:47.561Z,473.17
2024-05-09T06:35:47.609Z,472.21
2024-05-09T06:36:47.636Z,481.57
2024-05-09T06:37:46.956Z,478.98
2024-05-09T06:38:47.192Z,474.86
2024-05-09T06:39:47.310Z,469.36
2024-05-09T06:40:47.566Z,468.34
2024-05-09T06:41:46.667Z,470.41
2024-05-09T06:42:46.931Z,469.01
2024-05-09T06:43:47.115Z,472.83
2024-05-09T06:44:47.291Z,474.24
2024-05-09T06:45:46.451Z,481.11
2024-05-09T06:46:46.874Z,491.88
2024-05-09T06:47:46.983Z,478.37
2024-05-09T06:48:47.242Z,477.81
2024-05-09T06:49:47.393Z,484.21
2024-05-09T06:50:46.509Z,493.41
2024-05-09T06:51:46.611Z,495.98
2024-05-09T06:52:46.782Z,502.15
2024-05-09T06:53:47.037Z,503.61
2024-05-09T06:54:47.197Z,514.68
2024-05-09T06:55:47.410Z,522.09
2024-05-09T06:56:46.608Z,530.75
2024-05-09T06:57:46.781Z,531.02
2024-05-09T06:58:47.119Z,535.89
2024-05-09T06:59:47.201Z,543.74
2024-05-09T07:00:46.426Z,544.45
2024-05-09T07:01:46.706Z,549.76
2024-05-09T07:02:48.043Z,560.04
2024-05-09T07:03:47.108Z,575.53
2024-05-09T07:04:46.228Z,594.04
2024-05-09T07:05:47.461Z,601.79
2024-05-09T07:06:46.634Z,615.99
2024-05-09T07:07:46.787Z,645.13
2024-05-09T07:08:48.742Z,670.64
2024-05-09T07:09:46.123Z,685.41
2024-05-09T07:10:46.592Z,716.55
2024-05-09T07:11:46.613Z,736.24
2024-05-09T07:12:46.713Z,768.34
2024-05-09T07:13:46.898Z,817.73
2024-05-09T07:14:46.118Z,862.48
2024-05-09T07:15:46.239Z,931.21
2024-05-09T07:16:46.544Z,910.99
2024-05-09T07:17:46.818Z,907.18
2024-05-09T07:18:46.977Z,882.48
2024-05-09T07:19:47.061Z,827.67
2024-05-09T07:20:46.422Z,816.81
2024-05-09T07:21:46.287Z,810.84
2024-05-09T07:22:46.490Z,779.30
2024-05-09T07:23:47.448Z,779.88
2024-05-09T07:24:46.815Z,780.70
2024-05-09T07:25:46.224Z,791.72
2024-05-09T07:26:46.201Z,820.12
2024-05-09T07:27:46.368Z,880.62
2024-05-09T07:28:46.566Z,925.05
2024-05-09T07:29:46.794Z,962.55
2024-05-09T07:30:45.929Z,940.45
2024-05-09T07:31:46.054Z,970.07
2024-05-09T07:32:46.490Z,984.73
2024-05-09T07:33:46.495Z,967.19
2024-05-09T07:34:47.448Z,964.38
2024-05-09T07:35:46.868Z,979.53
2024-05-09T07:36:45.923Z,995.60
2024-05-09T07:37:46.145Z,972.01
2024-05-09T07:38:46.343Z,1065.41
2024-05-09T07:39:46.442Z,1130.32
2024-05-09T07:40:47.727Z,1096.90
2024-05-09T07:41:45.777Z,1057.25
2024-05-09T07:42:45.978Z,1009.46
2024-05-09T07:43:47.113Z,994.20
2024-05-09T07:44:46.288Z,978.92
2024-05-09T07:45:52.421Z,980.21
2024-05-09T07:47:48.624Z,967.25
2024-05-09T07:49:13.023Z,966.04
2024-05-09T07:51:32.580Z,952.91
2024-05-09T07:53:16.995Z,957.96
2024-05-09T07:53:34.701Z,954.07
2024-05-09T07:53:51.173Z,955.25
2024-05-09T07:54:47.109Z,957.84
2024-05-09T07:55:46.466Z,959.66
2024-05-09T07:56:48.238Z,960.26
2024-05-09T07:57:47.733Z,961.43
2024-05-09T07:58:48.747Z,959.34
2024-05-09T07:59:46.427Z,959.69
2024-05-09T08:00:48.320Z,959.67
2024-05-09T08:01:46.518Z,958.41
2024-05-09T08:02:46.855Z,961.10
2024-05-09T08:03:48.980Z,949.61
2024-05-09T08:04:50.454Z,961.10
2024-05-09T08:05:58.671Z,961.06
2024-05-09T08:06:51.446Z,965.47
2024-05-09T08:07:47.280Z,969.66
2024-05-09T08:08:54.540Z,976.01
2024-05-09T08:09:48.884Z,977.89
2024-05-09T08:10:50.562Z,983.29
2024-05-09T08:11:48.637Z,984.61
2024-05-09T08:12:46.485Z,987.86
2024-05-09T08:13:50.946Z,992.03
2024-05-09T08:14:48.447Z,996.36
2024-05-09T08:15:47.452Z,999.86
2024-05-09T08:16:47.835Z,1004.03
2024-05-09T08:17:47.979Z,1006.21
2024-05-09T08:18:48.517Z,1008.57
2024-05-09T08:19:48.148Z,1013.56
2024-05-09T08:20:47.535Z,1017.65
2024-05-09T08:21:55.422Z,1019.20
2024-05-09T08:22:46.864Z,1021.75
2024-05-09T08:23:46.768Z,1026.05
2024-05-09T08:24:46.510Z,1031.38
2024-05-09T08:25:53.604Z,1033.23
2024-05-09T08:26:47.516Z,1037.88
2024-05-09T08:27:50.329Z,1042.52
2024-05-09T08:28:47.499Z,1039.69
2024-05-09T08:29:47.841Z,1048.73
2024-05-09T08:30:50.375Z,1053.20
2024-05-09T08:31:49.608Z,1058.24
2024-05-09T08:32:50.901Z,1064.55
2024-05-09T08:33:54.283Z,1063.36
2024-05-09T08:34:51.152Z,1028.88
2024-05-09T08:35:53.584Z,1028.49
2024-05-09T08:36:49.877Z,1045.81
2024-05-09T08:37:57.311Z,1056.50
2024-05-09T08:38:48.924Z,1076.04
2024-05-09T08:39:48.888Z,1091.16
2024-05-09T08:40:50.728Z,1095.42
2024-05-09T08:41:46.994Z,1101.52
2024-05-09T08:42:51.200Z,1099.38
2024-05-09T08:43:49.146Z,1105.79
2024-05-09T08:44:57.003Z,1108.93
2024-05-09T08:45:54.252Z,1118.09
2024-05-09T08:46:48.549Z,1123.78
2024-05-09T08:47:55.384Z,1131.09
2024-05-09T08:48:53.190Z,1133.83
2024-05-09T08:49:55.973Z,1135.83
2024-05-09T08:50:56.159Z,1137.51
2024-05-09T08:51:52.967Z,1139.70
2024-05-09T08:52:54.241Z,1145.63
2024-05-09T08:53:50.695Z,1149.88
2024-05-09T08:54:47.068Z,1152.44
2024-05-09T08:55:47.185Z,1158.04
2024-05-09T08:56:48.201Z,1165.31
2024-05-09T08:57:48.496Z,1169.28
2024-05-09T08:58:50.022Z,1173.61
2024-05-09T08:59:47.963Z,1176.45
2024-05-09T09:00:49.910Z,1181.89
2024-05-09T09:01:51.301Z,1186.44
2024-05-09T09:02:49.011Z,1191.74
2024-05-09T09:03:45.906Z,1194.37
2024-05-09T09:04:45.855Z,1200.29
2024-05-09T09:05:45.022Z,1202.32
2024-05-09T09:06:45.112Z,1206.65
2024-05-09T09:07:45.237Z,1212.93
2024-05-09T09:08:45.392Z,1215.62
2024-05-09T09:09:45.589Z,1216.65
2024-05-09T09:10:45.686Z,1219.79
2024-05-09T09:11:45.797Z,1223.96
2024-05-09T09:12:45.919Z,1228.36
2024-05-09T09:13:45.069Z,1230.78
2024-05-09T09:14:45.262Z,1234.08
2024-05-09T09:15:45.358Z,1238.22
2024-05-09T09:16:44.477Z,1243.42
2024-05-09T09:17:44.703Z,1250.47
2024-05-09T09:18:45.116Z,1256.70
2024-05-09T09:19:44.961Z,1259.46
2024-05-09T09:20:45.104Z,1264.53
2024-05-09T09:21:45.241Z,1267.79
2024-05-09T09:22:45.297Z,1266.32
2024-05-09T09:23:45.474Z,1274.78
2024-05-09T09:24:44.697Z,1277.96
2024-05-09T09:25:44.835Z,1281.71
2024-05-09T09:26:44.995Z,1281.46
2024-05-09T09:27:45.192Z,1284.84
2024-05-09T09:28:44.273Z,1291.81
2024-05-09T09:29:44.430Z,1295.50
2024-05-09T09:30:44.765Z,1296.95
2024-05-09T09:31:44.796Z,1298.08
2024-05-09T09:32:45.005Z,1298.95
2024-05-09T09:33:46.278Z,1306.67
2024-05-09T09:34:44.238Z,1309.13
2024-05-09T09:35:44.361Z,1309.99
2024-05-09T09:36:44.633Z,1311.74
2024-05-09T09:37:44.635Z,1316.54
2024-05-09T09:38:45.750Z,1311.68
2024-05-09T09:39:49.009Z,1309.24
2024-05-09T09:40:48.672Z,1310.01
2024-05-09T09:41:44.191Z,1317.59
2024-05-09T09:42:45.306Z,1323.40
2024-05-09T09:43:44.453Z,1328.14
2024-05-09T09:44:47.935Z,1331.25
2024-05-09T09:45:46.699Z,1334.88
2024-05-09T09:46:45.784Z,1330.29
2024-05-09T09:47:45.040Z,1321.13
2024-05-09T09:48:45.101Z,1321.53
2024-05-09T09:49:45.206Z,1318.82
2024-05-09T09:50:45.249Z,1322.42
2024-05-09T09:51:44.428Z,1325.41
2024-05-09T09:52:44.571Z,1329.15
2024-05-09T09:53:44.644Z,1328.11
2024-05-09T09:54:44.717Z,1332.72
2024-05-09T09:55:45.774Z,1325.07
2024-05-09T09:56:44.844Z,1318.13
2024-05-09T09:57:44.065Z,1319.89
2024-05-09T09:58:44.108Z,1328.38
2024-05-09T09:59:44.234Z,1332.57
2024-05-09T10:00:44.640Z,1332.61
2024-05-09T10:01:44.622Z,1337.03
2024-05-09T10:02:44.607Z,1337.83
2024-05-09T10:03:45.218Z,1339.44
2024-05-09T10:04:44.172Z,1338.27
2024-05-09T10:05:47.073Z,1335.35
2024-05-09T10:06:44.068Z,1335.83
2024-05-09T10:07:44.270Z,1333.15
2024-05-09T10:08:45.043Z,1334.50
2024-05-09T10:09:45.460Z,1334.51
2024-05-09T10:10:44.782Z,1334.21
2024-05-09T10:11:49.216Z,1335.28
2024-05-09T10:12:44.799Z,1335.37
2024-05-09T10:13:44.842Z,1332.75
2024-05-09T10:14:43.969Z,1327.31
2024-05-09T10:15:44.147Z,1329.41
2024-05-09T10:16:45.175Z,1333.21
2024-05-09T10:17:44.616Z,1324.30
2024-05-09T10:18:45.605Z,1331.89
2024-05-09T10:19:44.738Z,1329.15
2024-05-09T10:20:44.825Z,1334.39
2024-05-09T10:21:43.838Z,1337.07
2024-05-09T10:22:44.037Z,1338.67
2024-05-09T10:23:44.164Z,1340.82
2024-05-09T10:24:44.215Z,1342.38
2024-05-09T10:25:45.216Z,1342.84
2024-05-09T10:26:44.397Z,1336.93
2024-05-09T10:27:44.429Z,1334.21
2024-05-09T10:28:44.513Z,1334.76
2024-05-09T10:29:43.760Z,1337.78
2024-05-09T10:30:44.868Z,1334.39
2024-05-09T10:31:44.120Z,1336.75
2024-05-09T10:32:44.169Z,1327.70
2024-05-09T10:33:44.396Z,1331.01
2024-05-09T10:34:44.321Z,1332.14
2024-05-09T10:35:44.339Z,1332.17
2024-05-09T10:36:43.470Z,1331.81
2024-05-09T10:37:43.517Z,1335.41
2024-05-09T10:38:43.623Z,1339.30
2024-05-09T10:39:43.794Z,1338.97
2024-05-09T10:40:43.985Z,1338.20
2024-05-09T10:41:44.033Z,1339.07
2024-05-09T10:42:44.119Z,1337.33
2024-05-09T10:43:45.197Z,1343.38
2024-05-09T10:44:43.335Z,1346.64
2024-05-09T10:45:44.415Z,1345.22
2024-05-09T10:46:44.467Z,1341.65
2024-05-09T10:47:43.654Z,1340.96
2024-05-09T10:48:44.424Z,1339.04
2024-05-09T10:49:43.902Z,1345.90
2024-05-09T10:50:44.931Z,1343.62
2024-05-09T10:51:44.143Z,1339.25
2024-05-09T10:52:43.167Z,1333.50
2024-05-09T10:53:44.259Z,1342.17
2024-05-09T10:54:44.411Z,1345.52
2024-05-09T10:55:43.532Z,1346.41
2024-05-09T10:56:43.597Z,1340.56
2024-05-09T10:57:43.757Z,1338.81
2024-05-09T10:58:44.823Z,1338.59
2024-05-09T10:59:43.976Z,1328.05
2024-05-09T11:00:43.177Z,1340.33
2024-05-09T11:01:43.300Z,1303.88
2024-05-09T11:02:43.751Z,1311.37
2024-05-09T11:03:43.660Z,1312.56
2024-05-09T11:04:43.567Z,1313.65
2024-05-09T11:05:43.802Z,1313.61
2024-05-09T11:06:44.731Z,1315.36
2024-05-09T11:07:43.865Z,1326.08
2024-05-09T11:08:42.929Z,1327.80
2024-05-09T11:09:43.081Z,1326.26
2024-05-09T11:10:43.361Z,1321.45
2024-05-09T11:11:43.339Z,1322.41
2024-05-09T11:12:43.517Z,1321.49
2024-05-09T11:13:43.697Z,1321.48
2024-05-09T11:14:43.587Z,1321.31
2024-05-09T11:15:44.714Z,1322.07
2024-05-09T11:16:43.812Z,1323.73
2024-05-09T11:17:43.060Z,1327.61
2024-05-09T11:18:43.692Z,1328.70
2024-05-09T11:19:43.197Z,1330.20
2024-05-09T11:20:43.418Z,1330.94
2024-05-09T11:21:43.381Z,1332.66
2024-05-09T11:22:43.379Z,1329.90
2024-05-09T11:23:43.537Z,1328.93
2024-05-09T11:24:43.606Z,1328.22
2024-05-09T11:25:43.717Z,1321.82
2024-05-09T11:26:42.742Z,1319.70
2024-05-09T11:27:42.865Z,1320.11
2024-05-09T11:28:42.993Z,1323.33
2024-05-09T11:29:43.078Z,1322.22
2024-05-09T11:30:43.315Z,1324.60
2024-05-09T11:31:43.338Z,1326.66
2024-05-09T11:32:43.475Z,1327.85
2024-05-09T11:33:43.742Z,1327.55
2024-05-09T11:34:44.655Z,1328.96
2024-05-09T11:35:42.656Z,1334.26
2024-05-09T11:36:42.862Z,1325.43
2024-05-09T11:37:42.919Z,1326.96
2024-05-09T11:38:43.227Z,1327.06
2024-05-09T11:39:43.245Z,1331.12
2024-05-09T11:40:43.368Z,1334.13
2024-05-09T11:41:43.450Z,1335.27
2024-05-09T11:42:42.602Z,1341.10
2024-05-09T11:43:42.680Z,1347.88
2024-05-09T11:44:42.826Z,1345.65
2024-05-09T11:45:43.027Z,1345.71
2024-05-09T11:46:43.055Z,1357.02
2024-05-09T11:47:43.231Z,1364.51
2024-05-09T11:48:44.534Z,1364.84
2024-05-09T11:49:43.508Z,1365.77
2024-05-09T11:50:43.815Z,1374.21
2024-05-09T11:51:42.752Z,1384.88
2024-05-09T11:52:42.804Z,1392.88
2024-05-09T11:53:42.942Z,1401.38
2024-05-09T11:54:43.060Z,1406.61
2024-05-09T11:55:43.126Z,1398.32
2024-05-09T11:56:43.201Z,1387.06
2024-05-09T11:57:42.380Z,1386.11
2024-05-09T11:58:42.387Z,1356.05
2024-05-09T11:59:42.511Z,1380.36
2024-05-09T12:00:42.648Z,1372.82
2024-05-09T12:01:42.880Z,1370.73
2024-05-09T12:02:43.741Z,1368.41
2024-05-09T12:03:43.163Z,1375.36
2024-05-09T12:04:44.072Z,1375.68
2024-05-09T12:05:43.372Z,1376.82
2024-05-09T12:06:42.243Z,1382.54
2024-05-09T12:07:42.354Z,1374.07
2024-05-09T12:08:42.433Z,1373.73
2024-05-09T12:09:42.577Z,1387.27
2024-05-09T12:10:42.838Z,1404.45
2024-05-09T12:11:42.868Z,1425.50
2024-05-09T12:12:43.012Z,1422.38
2024-05-09T12:13:43.141Z,1378.16
2024-05-09T12:14:42.203Z,1416.50
2024-05-09T12:15:43.383Z,1456.01
2024-05-09T12:16:43.431Z,1453.12
2024-05-09T12:17:42.621Z,1455.15
2024-05-09T12:18:42.719Z,1186.75
2024-05-09T12:19:42.786Z,1242.35
2024-05-09T12:20:42.867Z,1288.96
2024-05-09T12:21:43.015Z,1305.76
2024-05-09T12:22:42.080Z,1434.78
2024-05-09T12:23:42.247Z,1030.01
2024-05-09T12:24:42.253Z,1223.56
2024-05-09T12:25:42.365Z,1184.23
2024-05-09T12:26:42.603Z,1089.24
2024-05-09T12:27:42.546Z,1122.60
2024-05-09T12:28:42.650Z,1297.17
2024-05-09T12:29:42.718Z,1042.42
2024-05-09T12:30:43.790Z,1259.93
2024-05-09T12:31:41.859Z,1506.65
2024-05-09T12:32:42.000Z,1539.36
2024-05-09T12:33:42.157Z,1588.99
2024-05-09T12:34:42.389Z,1608.07
2024-05-09T12:35:44.619Z,1625.40
2024-05-09T12:36:42.533Z,1646.29
2024-05-09T12:37:42.498Z,1638.46
2024-05-09T12:38:42.654Z,1011.98